sensor_id;sensor_type;location;lat;lon;timestamp;temperature;humidity
75190;HTU21D;69198;44.694;37.790;2024-03-08T00:00:59;3.71;80.52
75190;HTU21D;69198;44.694;37.790;2024-03-08T00:02:00;3.73;80.59
75190;HTU21D;69198;44.694;37.790;2024-03-08T00:03:01;3.73;80.60
75190;HTU21D;69198;44.694;37.790;2024-03-08T00:04:03;3.76;80.62
75190;HTU21D;69198;44.694;37.790;2024-03-08T00:05:07;3.77;80.52
75190;HTU21D;69198;44.694;37.790;2024-03-08T00:06:12;3.77;80.47
75190;HTU21D;69198;44.694;37.790;2024-03-08T00:07:13;3.77;80.45
75190;HTU21D;69198;44.694;37.790;2024-03-08T00:08:14;3.73;80.52
75190;HTU21D;69198;44.694;37.790;2024-03-08T00:09:16;3.69;80.61
75190;HTU21D;69198;44.694;37.790;2024-03-08T00:10:17;3.69;80.67
75190;HTU21D;69198;44.694;37.790;2024-03-08T00:11:18;3.70;80.66
75190;HTU21D;69198;44.694;37.790;2024-03-08T00:12:19;3.68;80.68
75190;HTU21D;69198;44.694;37.790;2024-03-08T00:13:21;3.64;80.70
75190;HTU21D;69198;44.694;37.790;2024-03-08T00:14:22;3.64;80.73
75190;HTU21D;69198;44.694;37.790;2024-03-08T00:15:23;3.62;80.76
75190;HTU21D;69198;44.694;37.790;2024-03-08T00:16:24;3.62;80.75
75190;HTU21D;69198;44.694;37.790;2024-03-08T00:17:25;3.59;80.81
75190;HTU21D;69198;44.694;37.790;2024-03-08T00:18:26;3.57;80.84
75190;HTU21D;69198;44.694;37.790;2024-03-08T00:19:27;3.57;80.92
75190;HTU21D;69198;44.694;37.790;2024-03-08T00:20:28;3.56;80.98
75190;HTU21D;69198;44.694;37.790;2024-03-08T00:21:29;3.52;81.07
75190;HTU21D;69198;44.694;37.790;2024-03-08T00:22:31;3.49;81.15
75190;HTU21D;69198;44.694;37.790;2024-03-08T00:23:32;3.48;81.21
75190;HTU21D;69198;44.694;37.790;2024-03-08T00:24:34;3.47;81.26
75190;HTU21D;69198;44.694;37.790;2024-03-08T00:25:35;3.46;81.31
75190;HTU21D;69198;44.694;37.790;2024-03-08T00:26:36;3.46;81.39
75190;HTU21D;69198;44.694;37.790;2024-03-08T00:27:38;3.45;81.46
75190;HTU21D;69198;44.694;37.790;2024-03-08T00:28:39;3.48;81.49
75190;HTU21D;69198;44.694;37.790;2024-03-08T00:29:40;3.52;81.44
75190;HTU21D;69198;44.694;37.790;2024-03-08T00:30:41;3.52;81.37
75190;HTU21D;69198;44.694;37.790;2024-03-08T00:31:43;3.52;81.33
75190;HTU21D;69198;44.694;37.790;2024-03-08T00:32:44;3.54;81.33
75190;HTU21D;69198;44.694;37.790;2024-03-08T00:33:45;3.53;81.33
75190;HTU21D;69198;44.694;37.790;2024-03-08T00:34:46;3.55;81.31
75190;HTU21D;69198;44.694;37.790;2024-03-08T00:35:47;3.55;81.29
75190;HTU21D;69198;44.694;37.790;2024-03-08T00:36:48;3.54;81.26
75190;HTU21D;69198;44.694;37.790;2024-03-08T00:37:49;3.54;81.20
75190;HTU21D;69198;44.694;37.790;2024-03-08T00:38:51;3.50;81.32
75190;HTU21D;69198;44.694;37.790;2024-03-08T00:39:52;3.46;81.42
75190;HTU21D;69198;44.694;37.790;2024-03-08T00:40:53;3.44;81.49
75190;HTU21D;69198;44.694;37.790;2024-03-08T00:41:54;3.46;81.53
75190;HTU21D;69198;44.694;37.790;2024-03-08T00:42:55;3.45;81.58
75190;HTU21D;69198;44.694;37.790;2024-03-08T00:43:56;3.45;81.64
75190;HTU21D;69198;44.694;37.790;2024-03-08T00:44:58;3.42;81.69
75190;HTU21D;69198;44.694;37.790;2024-03-08T00:45:59;3.42;81.70
75190;HTU21D;69198;44.694;37.790;2024-03-08T00:47:01;3.42;81.75
75190;HTU21D;69198;44.694;37.790;2024-03-08T00:48:04;3.40;81.81
75190;HTU21D;69198;44.694;37.790;2024-03-08T00:49:06;3.42;81.78
75190;HTU21D;69198;44.694;37.790;2024-03-08T00:50:07;3.40;81.81
75190;HTU21D;69198;44.694;37.790;2024-03-08T00:51:09;3.40;81.86
75190;HTU21D;69198;44.694;37.790;2024-03-08T00:52:10;3.41;81.85
75190;HTU21D;69198;44.694;37.790;2024-03-08T00:53:12;3.40;81.94
75190;HTU21D;69198;44.694;37.790;2024-03-08T00:54:13;3.40;81.93
75190;HTU21D;69198;44.694;37.790;2024-03-08T00:55:14;3.38;82.01
75190;HTU21D;69198;44.694;37.790;2024-03-08T00:56:15;3.40;82.04
75190;HTU21D;69198;44.694;37.790;2024-03-08T00:57:16;3.41;82.07
75190;HTU21D;69198;44.694;37.790;2024-03-08T00:58:17;3.44;82.04
75190;HTU21D;69198;44.694;37.790;2024-03-08T00:59:18;3.47;81.87
75190;HTU21D;69198;44.694;37.790;2024-03-08T01:00:20;3.48;81.62
75190;HTU21D;69198;44.694;37.790;2024-03-08T01:01:21;3.45;81.51
75190;HTU21D;69198;44.694;37.790;2024-03-08T01:02:22;3.43;81.55
75190;HTU21D;69198;44.694;37.790;2024-03-08T01:03:23;3.41;81.65
75190;HTU21D;69198;44.694;37.790;2024-03-08T01:04:24;3.40;81.69
75190;HTU21D;69198;44.694;37.790;2024-03-08T01:05:26;3.40;81.66
75190;HTU21D;69198;44.694;37.790;2024-03-08T01:06:27;3.39;81.64
75190;HTU21D;69198;44.694;37.790;2024-03-08T01:07:28;3.38;81.74
75190;HTU21D;69198;44.694;37.790;2024-03-08T01:08:29;3.35;81.79
75190;HTU21D;69198;44.694;37.790;2024-03-08T01:09:30;3.34;81.83
75190;HTU21D;69198;44.694;37.790;2024-03-08T01:10:32;3.36;81.75
75190;HTU21D;69198;44.694;37.790;2024-03-08T01:11:33;3.34;81.75
75190;HTU21D;69198;44.694;37.790;2024-03-08T01:12:35;3.33;81.81
75190;HTU21D;69198;44.694;37.790;2024-03-08T01:13:36;3.30;81.84
75190;HTU21D;69198;44.694;37.790;2024-03-08T01:14:37;3.30;81.88
75190;HTU21D;69198;44.694;37.790;2024-03-08T01:15:38;3.27;81.94
75190;HTU21D;69198;44.694;37.790;2024-03-08T01:16:42;3.24;82.02
75190;HTU21D;69198;44.694;37.790;2024-03-08T01:17:43;3.25;82.07
75190;HTU21D;69198;44.694;37.790;2024-03-08T01:18:44;3.24;82.11
75190;HTU21D;69198;44.694;37.790;2024-03-08T01:19:47;3.19;82.23
75190;HTU21D;69198;44.694;37.790;2024-03-08T01:20:48;3.19;82.31
75190;HTU21D;69198;44.694;37.790;2024-03-08T01:21:49;3.17;82.40
75190;HTU21D;69198;44.694;37.790;2024-03-08T01:22:50;3.16;82.47
75190;HTU21D;69198;44.694;37.790;2024-03-08T01:23:52;3.16;82.54
75190;HTU21D;69198;44.694;37.790;2024-03-08T01:24:54;3.14;82.58
75190;HTU21D;69198;44.694;37.790;2024-03-08T01:25:55;3.14;82.62
75190;HTU21D;69198;44.694;37.790;2024-03-08T01:26:57;3.11;82.65
75190;HTU21D;69198;44.694;37.790;2024-03-08T01:27:58;3.09;82.69
75190;HTU21D;69198;44.694;37.790;2024-03-08T01:29:02;3.10;82.76
75190;HTU21D;69198;44.694;37.790;2024-03-08T01:30:04;3.10;82.83
75190;HTU21D;69198;44.694;37.790;2024-03-08T01:31:06;3.08;82.84
75190;HTU21D;69198;44.694;37.790;2024-03-08T01:32:07;3.10;82.87
75190;HTU21D;69198;44.694;37.790;2024-03-08T01:33:08;3.10;82.90
75190;HTU21D;69198;44.694;37.790;2024-03-08T01:34:10;3.08;82.93
75190;HTU21D;69198;44.694;37.790;2024-03-08T01:35:11;3.09;82.98
75190;HTU21D;69198;44.694;37.790;2024-03-08T01:36:12;3.11;83.05
75190;HTU21D;69198;44.694;37.790;2024-03-08T01:37:16;3.10;83.06
75190;HTU21D;69198;44.694;37.790;2024-03-08T01:38:17;3.10;83.06
75190;HTU21D;69198;44.694;37.790;2024-03-08T01:39:18;3.10;83.06
75190;HTU21D;69198;44.694;37.790;2024-03-08T01:40:20;3.12;83.09
75190;HTU21D;69198;44.694;37.790;2024-03-08T01:41:21;3.10;83.08
75190;HTU21D;69198;44.694;37.790;2024-03-08T01:42:22;3.12;83.10
75190;HTU21D;69198;44.694;37.790;2024-03-08T01:43:28;3.12;83.10
75190;HTU21D;69198;44.694;37.790;2024-03-08T01:44:29;3.11;83.12
75190;HTU21D;69198;44.694;37.790;2024-03-08T01:45:31;3.11;83.14
75190;HTU21D;69198;44.694;37.790;2024-03-08T01:46:35;3.09;83.17
75190;HTU21D;69198;44.694;37.790;2024-03-08T01:47:37;3.09;83.19
75190;HTU21D;69198;44.694;37.790;2024-03-08T01:48:38;3.09;83.20
75190;HTU21D;69198;44.694;37.790;2024-03-08T01:49:41;3.06;83.23
75190;HTU21D;69198;44.694;37.790;2024-03-08T01:50:43;3.08;83.23
75190;HTU21D;69198;44.694;37.790;2024-03-08T01:51:44;3.09;83.23
75190;HTU21D;69198;44.694;37.790;2024-03-08T01:52:46;3.11;83.23
75190;HTU21D;69198;44.694;37.790;2024-03-08T01:53:48;3.12;83.23
75190;HTU21D;69198;44.694;37.790;2024-03-08T01:54:49;3.11;83.23
75190;HTU21D;69198;44.694;37.790;2024-03-08T01:55:55;3.13;83.24
75190;HTU21D;69198;44.694;37.790;2024-03-08T01:56:57;3.12;83.23
75190;HTU21D;69198;44.694;37.790;2024-03-08T01:57:59;3.14;83.23
75190;HTU21D;69198;44.694;37.790;2024-03-08T01:59:01;3.14;83.23
75190;HTU21D;69198;44.694;37.790;2024-03-08T02:00:02;3.14;83.25
75190;HTU21D;69198;44.694;37.790;2024-03-08T02:01:07;3.15;83.31
75190;HTU21D;69198;44.694;37.790;2024-03-08T02:02:11;3.16;83.32
75190;HTU21D;69198;44.694;37.790;2024-03-08T02:03:16;3.15;83.35
75190;HTU21D;69198;44.694;37.790;2024-03-08T02:04:17;3.14;83.35
75190;HTU21D;69198;44.694;37.790;2024-03-08T02:05:18;3.16;83.37
75190;HTU21D;69198;44.694;37.790;2024-03-08T02:06:20;3.19;83.33
75190;HTU21D;69198;44.694;37.790;2024-03-08T02:07:21;3.18;83.30
75190;HTU21D;69198;44.694;37.790;2024-03-08T02:08:22;3.17;83.32
75190;HTU21D;69198;44.694;37.790;2024-03-08T02:09:24;3.15;83.35
75190;HTU21D;69198;44.694;37.790;2024-03-08T02:10:25;3.17;83.39
75190;HTU21D;69198;44.694;37.790;2024-03-08T02:11:26;3.21;83.36
75190;HTU21D;69198;44.694;37.790;2024-03-08T02:12:28;3.20;83.36
75190;HTU21D;69198;44.694;37.790;2024-03-08T02:13:29;3.18;83.36
75190;HTU21D;69198;44.694;37.790;2024-03-08T02:14:30;3.19;83.38
75190;HTU21D;69198;44.694;37.790;2024-03-08T02:16:04;3.25;83.42
75190;HTU21D;69198;44.694;37.790;2024-03-08T02:17:08;3.21;83.45
75190;HTU21D;69198;44.694;37.790;2024-03-08T02:18:09;3.24;83.36
75190;HTU21D;69198;44.694;37.790;2024-03-08T02:19:11;3.19;83.40
75190;HTU21D;69198;44.694;37.790;2024-03-08T02:20:12;3.17;83.46
75190;HTU21D;69198;44.694;37.790;2024-03-08T02:21:16;3.19;83.49
75190;HTU21D;69198;44.694;37.790;2024-03-08T02:22:19;3.17;83.54
75190;HTU21D;69198;44.694;37.790;2024-03-08T02:23:21;3.16;83.55
75190;HTU21D;69198;44.694;37.790;2024-03-08T02:24:22;3.17;83.61
75190;HTU21D;69198;44.694;37.790;2024-03-08T02:25:24;3.17;83.68
75190;HTU21D;69198;44.694;37.790;2024-03-08T02:26:25;3.16;83.68
75190;HTU21D;69198;44.694;37.790;2024-03-08T02:27:26;3.14;83.69
75190;HTU21D;69198;44.694;37.790;2024-03-08T02:28:28;3.16;83.74
75190;HTU21D;69198;44.694;37.790;2024-03-08T02:29:31;3.16;83.76
75190;HTU21D;69198;44.694;37.790;2024-03-08T02:30:32;3.17;83.75
75190;HTU21D;69198;44.694;37.790;2024-03-08T02:31:33;3.17;83.78
75190;HTU21D;69198;44.694;37.790;2024-03-08T02:32:35;3.19;83.79
75190;HTU21D;69198;44.694;37.790;2024-03-08T02:33:36;3.20;83.79
75190;HTU21D;69198;44.694;37.790;2024-03-08T02:34:37;3.18;83.78
75190;HTU21D;69198;44.694;37.790;2024-03-08T02:35:38;3.19;83.80
75190;HTU21D;69198;44.694;37.790;2024-03-08T02:36:39;3.23;83.80
75190;HTU21D;69198;44.694;37.790;2024-03-08T02:37:40;3.21;83.79
75190;HTU21D;69198;44.694;37.790;2024-03-08T02:38:41;3.24;83.86
75190;HTU21D;69198;44.694;37.790;2024-03-08T02:39:42;3.25;83.86
75190;HTU21D;69198;44.694;37.790;2024-03-08T02:40:44;3.23;83.87
75190;HTU21D;69198;44.694;37.790;2024-03-08T02:41:45;3.25;83.89
75190;HTU21D;69198;44.694;37.790;2024-03-08T02:42:46;3.27;83.87
75190;HTU21D;69198;44.694;37.790;2024-03-08T02:43:47;3.26;83.87
75190;HTU21D;69198;44.694;37.790;2024-03-08T02:44:48;3.26;83.87
75190;HTU21D;69198;44.694;37.790;2024-03-08T02:45:49;3.26;83.86
75190;HTU21D;69198;44.694;37.790;2024-03-08T02:46:50;3.25;83.87
75190;HTU21D;69198;44.694;37.790;2024-03-08T02:47:51;3.27;83.87
75190;HTU21D;69198;44.694;37.790;2024-03-08T02:48:52;3.27;83.84
75190;HTU21D;69198;44.694;37.790;2024-03-08T02:49:53;3.28;83.81
75190;HTU21D;69198;44.694;37.790;2024-03-08T02:50:54;3.28;83.83
75190;HTU21D;69198;44.694;37.790;2024-03-08T02:51:55;3.28;83.83
75190;HTU21D;69198;44.694;37.790;2024-03-08T02:52:58;3.32;83.87
75190;HTU21D;69198;44.694;37.790;2024-03-08T02:53:59;3.30;83.92
75190;HTU21D;69198;44.694;37.790;2024-03-08T02:54:59;3.31;83.96
75190;HTU21D;69198;44.694;37.790;2024-03-08T02:56:01;3.32;83.95
75190;HTU21D;69198;44.694;37.790;2024-03-08T02:57:01;3.32;83.95
75190;HTU21D;69198;44.694;37.790;2024-03-08T02:58:05;3.31;83.93
75190;HTU21D;69198;44.694;37.790;2024-03-08T02:59:06;3.33;83.91
75190;HTU21D;69198;44.694;37.790;2024-03-08T03:00:07;3.32;83.90
75190;HTU21D;69198;44.694;37.790;2024-03-08T03:01:11;3.32;83.93
75190;HTU21D;69198;44.694;37.790;2024-03-08T03:02:12;3.34;83.92
75190;HTU21D;69198;44.694;37.790;2024-03-08T03:03:13;3.33;83.97
75190;HTU21D;69198;44.694;37.790;2024-03-08T03:04:14;3.35;84.00
75190;HTU21D;69198;44.694;37.790;2024-03-08T03:05:15;3.34;84.00
75190;HTU21D;69198;44.694;37.790;2024-03-08T03:06:16;3.33;84.00
75190;HTU21D;69198;44.694;37.790;2024-03-08T03:07:19;3.34;84.06
75190;HTU21D;69198;44.694;37.790;2024-03-08T03:08:20;3.34;84.07
75190;HTU21D;69198;44.694;37.790;2024-03-08T03:09:21;3.36;84.05
75190;HTU21D;69198;44.694;37.790;2024-03-08T03:10:28;3.35;84.04
75190;HTU21D;69198;44.694;37.790;2024-03-08T03:11:29;3.38;84.03
75190;HTU21D;69198;44.694;37.790;2024-03-08T03:12:31;3.36;84.03
75190;HTU21D;69198;44.694;37.790;2024-03-08T03:13:32;3.36;84.03
75190;HTU21D;69198;44.694;37.790;2024-03-08T03:14:37;3.40;84.00
75190;HTU21D;69198;44.694;37.790;2024-03-08T03:15:40;3.39;84.01
75190;HTU21D;69198;44.694;37.790;2024-03-08T03:16:42;3.40;83.99
75190;HTU21D;69198;44.694;37.790;2024-03-08T03:17:48;3.40;83.94
75190;HTU21D;69198;44.694;37.790;2024-03-08T03:18:51;3.38;83.94
75190;HTU21D;69198;44.694;37.790;2024-03-08T03:19:52;3.38;83.97
75190;HTU21D;69198;44.694;37.790;2024-03-08T03:20:53;3.38;83.99
75190;HTU21D;69198;44.694;37.790;2024-03-08T03:21:55;3.34;84.03
75190;HTU21D;69198;44.694;37.790;2024-03-08T03:22:56;3.33;84.12
75190;HTU21D;69198;44.694;37.790;2024-03-08T03:23:57;3.32;84.16
75190;HTU21D;69198;44.694;37.790;2024-03-08T03:24:59;3.31;84.20
75190;HTU21D;69198;44.694;37.790;2024-03-08T03:26:01;3.31;84.21
75190;HTU21D;69198;44.694;37.790;2024-03-08T03:27:03;3.30;84.23
75190;HTU21D;69198;44.694;37.790;2024-03-08T03:28:11;3.30;84.26
75190;HTU21D;69198;44.694;37.790;2024-03-08T03:29:15;3.30;84.28
75190;HTU21D;69198;44.694;37.790;2024-03-08T03:30:17;3.31;84.29
75190;HTU21D;69198;44.694;37.790;2024-03-08T03:31:27;3.32;84.32
75190;HTU21D;69198;44.694;37.790;2024-03-08T03:32:27;3.32;84.28
75190;HTU21D;69198;44.694;37.790;2024-03-08T03:33:29;3.35;84.31
75190;HTU21D;69198;44.694;37.790;2024-03-08T03:34:30;3.35;84.30
75190;HTU21D;69198;44.694;37.790;2024-03-08T03:35:31;3.34;84.26
75190;HTU21D;69198;44.694;37.790;2024-03-08T03:36:32;3.32;84.25
75190;HTU21D;69198;44.694;37.790;2024-03-08T03:37:34;3.34;84.26
75190;HTU21D;69198;44.694;37.790;2024-03-08T03:38:35;3.33;84.26
75190;HTU21D;69198;44.694;37.790;2024-03-08T03:39:36;3.34;84.25
75190;HTU21D;69198;44.694;37.790;2024-03-08T03:40:45;3.33;84.25
75190;HTU21D;69198;44.694;37.790;2024-03-08T03:41:46;3.32;84.24
75190;HTU21D;69198;44.694;37.790;2024-03-08T03:42:52;3.33;84.25
75190;HTU21D;69198;44.694;37.790;2024-03-08T03:43:53;3.32;84.29
75190;HTU21D;69198;44.694;37.790;2024-03-08T03:44:54;3.33;84.30
75190;HTU21D;69198;44.694;37.790;2024-03-08T03:45:55;3.31;84.31
75190;HTU21D;69198;44.694;37.790;2024-03-08T03:46:56;3.33;84.35
75190;HTU21D;69198;44.694;37.790;2024-03-08T03:47:58;3.32;84.35
75190;HTU21D;69198;44.694;37.790;2024-03-08T03:49:01;3.32;84.39
75190;HTU21D;69198;44.694;37.790;2024-03-08T03:50:05;3.34;84.41
75190;HTU21D;69198;44.694;37.790;2024-03-08T03:51:06;3.33;84.40
75190;HTU21D;69198;44.694;37.790;2024-03-08T03:52:08;3.34;84.42
75190;HTU21D;69198;44.694;37.790;2024-03-08T03:53:09;3.36;84.42
75190;HTU21D;69198;44.694;37.790;2024-03-08T03:54:11;3.38;84.40
75190;HTU21D;69198;44.694;37.790;2024-03-08T03:55:14;3.35;84.38
75190;HTU21D;69198;44.694;37.790;2024-03-08T03:56:15;3.38;84.45
75190;HTU21D;69198;44.694;37.790;2024-03-08T03:57:16;3.38;84.44
75190;HTU21D;69198;44.694;37.790;2024-03-08T03:58:19;3.39;84.42
75190;HTU21D;69198;44.694;37.790;2024-03-08T03:59:23;3.38;84.42
75190;HTU21D;69198;44.694;37.790;2024-03-08T04:00:25;3.38;84.42
75190;HTU21D;69198;44.694;37.790;2024-03-08T04:01:27;3.35;84.38
75190;HTU21D;69198;44.694;37.790;2024-03-08T04:02:29;3.33;84.41
75190;HTU21D;69198;44.694;37.790;2024-03-08T04:03:30;3.34;84.39
75190;HTU21D;69198;44.694;37.790;2024-03-08T04:04:32;3.33;84.42
75190;HTU21D;69198;44.694;37.790;2024-03-08T04:05:33;3.35;84.40
75190;HTU21D;69198;44.694;37.790;2024-03-08T04:06:34;3.32;84.39
75190;HTU21D;69198;44.694;37.790;2024-03-08T04:07:35;3.30;84.43
75190;HTU21D;69198;44.694;37.790;2024-03-08T04:08:36;3.30;84.48
75190;HTU21D;69198;44.694;37.790;2024-03-08T04:09:37;3.28;84.47
75190;HTU21D;69198;44.694;37.790;2024-03-08T04:10:38;3.27;84.45
75190;HTU21D;69198;44.694;37.790;2024-03-08T04:11:39;3.30;84.49
75190;HTU21D;69198;44.694;37.790;2024-03-08T04:12:41;3.30;84.49
75190;HTU21D;69198;44.694;37.790;2024-03-08T04:13:43;3.27;84.56
75190;HTU21D;69198;44.694;37.790;2024-03-08T04:14:44;3.27;84.68
75190;HTU21D;69198;44.694;37.790;2024-03-08T04:15:45;3.27;84.81
75190;HTU21D;69198;44.694;37.790;2024-03-08T04:16:46;3.30;85.11
75190;HTU21D;69198;44.694;37.790;2024-03-08T04:17:48;3.31;85.16
75190;HTU21D;69198;44.694;37.790;2024-03-08T04:18:49;3.31;85.13
75190;HTU21D;69198;44.694;37.790;2024-03-08T04:19:50;3.30;85.10
75190;HTU21D;69198;44.694;37.790;2024-03-08T04:20:51;3.27;85.10
75190;HTU21D;69198;44.694;37.790;2024-03-08T04:21:52;3.27;85.09
75190;HTU21D;69198;44.694;37.790;2024-03-08T04:22:53;3.29;85.15
75190;HTU21D;69198;44.694;37.790;2024-03-08T04:23:54;3.30;85.23
75190;HTU21D;69198;44.694;37.790;2024-03-08T04:24:55;3.30;85.25
75190;HTU21D;69198;44.694;37.790;2024-03-08T04:25:57;3.30;85.25
75190;HTU21D;69198;44.694;37.790;2024-03-08T04:26:58;3.29;85.33
75190;HTU21D;69198;44.694;37.790;2024-03-08T04:27:59;3.28;85.39
75190;HTU21D;69198;44.694;37.790;2024-03-08T04:29:01;3.30;85.58
75190;HTU21D;69198;44.694;37.790;2024-03-08T04:30:03;3.31;85.56
75190;HTU21D;69198;44.694;37.790;2024-03-08T04:31:04;3.34;85.59
75190;HTU21D;69198;44.694;37.790;2024-03-08T04:32:06;3.35;85.58
75190;HTU21D;69198;44.694;37.790;2024-03-08T04:33:10;3.38;85.60
75190;HTU21D;69198;44.694;37.790;2024-03-08T04:34:11;3.40;85.59
75190;HTU21D;69198;44.694;37.790;2024-03-08T04:35:12;3.44;85.61
75190;HTU21D;69198;44.694;37.790;2024-03-08T04:36:13;3.48;85.56
75190;HTU21D;69198;44.694;37.790;2024-03-08T04:37:14;3.48;85.50
75190;HTU21D;69198;44.694;37.790;2024-03-08T04:38:15;3.48;85.44
75190;HTU21D;69198;44.694;37.790;2024-03-08T04:39:16;3.47;85.42
75190;HTU21D;69198;44.694;37.790;2024-03-08T04:40:19;3.53;85.44
75190;HTU21D;69198;44.694;37.790;2024-03-08T04:41:20;3.60;85.60
75190;HTU21D;69198;44.694;37.790;2024-03-08T04:42:22;3.75;85.70
75190;HTU21D;69198;44.694;37.790;2024-03-08T04:43:23;3.95;85.49
75190;HTU21D;69198;44.694;37.790;2024-03-08T04:44:27;4.09;84.61
75190;HTU21D;69198;44.694;37.790;2024-03-08T04:45:28;4.16;84.36
75190;HTU21D;69198;44.694;37.790;2024-03-08T04:46:32;4.30;84.48
75190;HTU21D;69198;44.694;37.790;2024-03-08T04:47:33;4.45;83.90
75190;HTU21D;69198;44.694;37.790;2024-03-08T04:48:37;4.50;83.37
75190;HTU21D;69198;44.694;37.790;2024-03-08T04:49:38;4.47;83.11
75190;HTU21D;69198;44.694;37.790;2024-03-08T04:50:39;4.44;82.94
75190;HTU21D;69198;44.694;37.790;2024-03-08T04:51:40;4.36;82.85
75190;HTU21D;69198;44.694;37.790;2024-03-08T04:52:41;4.30;82.82
75190;HTU21D;69198;44.694;37.790;2024-03-08T04:53:43;4.28;82.92
75190;HTU21D;69198;44.694;37.790;2024-03-08T04:54:44;4.30;82.77
75190;HTU21D;69198;44.694;37.790;2024-03-08T04:55:45;4.24;82.69
75190;HTU21D;69198;44.694;37.790;2024-03-08T04:56:49;4.35;83.05
75190;HTU21D;69198;44.694;37.790;2024-03-08T04:57:50;4.62;83.17
75190;HTU21D;69198;44.694;37.790;2024-03-08T04:58:51;4.90;82.24
75190;HTU21D;69198;44.694;37.790;2024-03-08T04:59:52;5.06;81.76
75190;HTU21D;69198;44.694;37.790;2024-03-08T05:00:53;5.26;81.35
75190;HTU21D;69198;44.694;37.790;2024-03-08T05:01:54;5.52;80.56
75190;HTU21D;69198;44.694;37.790;2024-03-08T05:02:55;5.80;79.93
75190;HTU21D;69198;44.694;37.790;2024-03-08T05:03:56;5.92;78.52
75190;HTU21D;69198;44.694;37.790;2024-03-08T05:04:57;5.97;77.98
75190;HTU21D;69198;44.694;37.790;2024-03-08T05:05:58;6.11;77.96
75190;HTU21D;69198;44.694;37.790;2024-03-08T05:06:59;6.28;77.44
75190;HTU21D;69198;44.694;37.790;2024-03-08T05:08:02;6.42;76.57
75190;HTU21D;69198;44.694;37.790;2024-03-08T05:09:03;6.57;76.04
75190;HTU21D;69198;44.694;37.790;2024-03-08T05:10:14;6.73;75.29
75190;HTU21D;69198;44.694;37.790;2024-03-08T05:11:18;6.80;74.61
75190;HTU21D;69198;44.694;37.790;2024-03-08T05:12:19;6.86;74.27
75190;HTU21D;69198;44.694;37.790;2024-03-08T05:13:20;6.91;74.30
75190;HTU21D;69198;44.694;37.790;2024-03-08T05:14:21;6.88;74.47
75190;HTU21D;69198;44.694;37.790;2024-03-08T05:15:22;6.98;74.84
75190;HTU21D;69198;44.694;37.790;2024-03-08T05:16:23;7.00;73.76
75190;HTU21D;69198;44.694;37.790;2024-03-08T05:17:25;6.98;73.97
75190;HTU21D;69198;44.694;37.790;2024-03-08T05:18:26;6.97;73.34
75190;HTU21D;69198;44.694;37.790;2024-03-08T05:19:29;6.81;73.21
75190;HTU21D;69198;44.694;37.790;2024-03-08T05:20:31;6.67;73.61
75190;HTU21D;69198;44.694;37.790;2024-03-08T05:21:32;6.48;74.02
75190;HTU21D;69198;44.694;37.790;2024-03-08T05:22:34;6.26;74.51
75190;HTU21D;69198;44.694;37.790;2024-03-08T05:23:35;6.09;74.61
75190;HTU21D;69198;44.694;37.790;2024-03-08T05:24:36;5.94;75.27
75190;HTU21D;69198;44.694;37.790;2024-03-08T05:25:37;5.82;75.56
75190;HTU21D;69198;44.694;37.790;2024-03-08T05:26:38;5.71;75.77
75190;HTU21D;69198;44.694;37.790;2024-03-08T05:27:39;5.59;75.82
75190;HTU21D;69198;44.694;37.790;2024-03-08T05:28:40;5.45;76.28
75190;HTU21D;69198;44.694;37.790;2024-03-08T05:29:41;5.38;76.63
75190;HTU21D;69198;44.694;37.790;2024-03-08T05:30:41;5.31;76.79
75190;HTU21D;69198;44.694;37.790;2024-03-08T05:32:48;5.17;77.45
75190;HTU21D;69198;44.694;37.790;2024-03-08T05:33:50;5.10;77.59
75190;HTU21D;69198;44.694;37.790;2024-03-08T05:34:51;5.01;77.85
75190;HTU21D;69198;44.694;37.790;2024-03-08T05:35:52;4.91;78.04
75190;HTU21D;69198;44.694;37.790;2024-03-08T05:36:54;4.90;77.75
75190;HTU21D;69198;44.694;37.790;2024-03-08T05:37:55;4.80;78.01
75190;HTU21D;69198;44.694;37.790;2024-03-08T05:38:56;4.69;78.48
75190;HTU21D;69198;44.694;37.790;2024-03-08T05:39:57;4.69;78.67
75190;HTU21D;69198;44.694;37.790;2024-03-08T05:40:58;4.67;79.03
75190;HTU21D;69198;44.694;37.790;2024-03-08T05:41:59;4.75;78.85
75190;HTU21D;69198;44.694;37.790;2024-03-08T05:43:00;4.75;78.69
75190;HTU21D;69198;44.694;37.790;2024-03-08T05:44:02;4.76;78.71
75190;HTU21D;69198;44.694;37.790;2024-03-08T05:45:04;4.74;78.69
75190;HTU21D;69198;44.694;37.790;2024-03-08T05:46:06;4.72;78.76
75190;HTU21D;69198;44.694;37.790;2024-03-08T05:47:07;4.77;79.32
75190;HTU21D;69198;44.694;37.790;2024-03-08T05:48:09;4.95;79.17
75190;HTU21D;69198;44.694;37.790;2024-03-08T05:49:10;5.04;77.94
75190;HTU21D;69198;44.694;37.790;2024-03-08T05:50:12;4.98;77.64
75190;HTU21D;69198;44.694;37.790;2024-03-08T05:51:13;4.95;77.95
75190;HTU21D;69198;44.694;37.790;2024-03-08T05:52:14;4.96;78.00
75190;HTU21D;69198;44.694;37.790;2024-03-08T05:53:16;5.22;78.53
75190;HTU21D;69198;44.694;37.790;2024-03-08T05:54:17;5.51;77.69
75190;HTU21D;69198;44.694;37.790;2024-03-08T05:55:18;5.60;76.86
75190;HTU21D;69198;44.694;37.790;2024-03-08T05:56:19;5.65;76.70
75190;HTU21D;69198;44.694;37.790;2024-03-08T05:57:20;5.91;76.87
75190;HTU21D;69198;44.694;37.790;2024-03-08T05:58:23;6.31;76.87
75190;HTU21D;69198;44.694;37.790;2024-03-08T05:59:25;6.74;74.96
75190;HTU21D;69198;44.694;37.790;2024-03-08T06:00:25;7.00;74.23
75190;HTU21D;69198;44.694;37.790;2024-03-08T06:01:27;7.22;73.28
75190;HTU21D;69198;44.694;37.790;2024-03-08T06:02:28;7.49;72.80
75190;HTU21D;69198;44.694;37.790;2024-03-08T06:03:29;7.65;71.72
75190;HTU21D;69198;44.694;37.790;2024-03-08T06:04:31;7.76;71.29
75190;HTU21D;69198;44.694;37.790;2024-03-08T06:05:32;7.84;70.43
75190;HTU21D;69198;44.694;37.790;2024-03-08T06:06:33;7.82;70.42
75190;HTU21D;69198;44.694;37.790;2024-03-08T06:07:35;7.88;70.71
75190;HTU21D;69198;44.694;37.790;2024-03-08T06:08:36;8.05;70.19
75190;HTU21D;69198;44.694;37.790;2024-03-08T06:09:37;8.12;69.07
75190;HTU21D;69198;44.694;37.790;2024-03-08T06:10:37;8.09;68.59
75190;HTU21D;69198;44.694;37.790;2024-03-08T06:11:40;8.16;68.77
75190;HTU21D;69198;44.694;37.790;2024-03-08T06:12:42;8.30;68.46
75190;HTU21D;69198;44.694;37.790;2024-03-08T06:13:43;8.47;68.24
75190;HTU21D;69198;44.694;37.790;2024-03-08T06:14:45;8.63;67.26
75190;HTU21D;69198;44.694;37.790;2024-03-08T06:15:46;8.72;66.89
75190;HTU21D;69198;44.694;37.790;2024-03-08T06:16:47;8.78;66.40
75190;HTU21D;69198;44.694;37.790;2024-03-08T06:17:51;8.81;65.69
75190;HTU21D;69198;44.694;37.790;2024-03-08T06:18:53;8.90;65.64
75190;HTU21D;69198;44.694;37.790;2024-03-08T06:19:56;8.94;65.18
75190;HTU21D;69198;44.694;37.790;2024-03-08T06:20:57;8.97;64.84
75190;HTU21D;69198;44.694;37.790;2024-03-08T06:21:58;9.01;64.70
75190;HTU21D;69198;44.694;37.790;2024-03-08T06:22:59;9.04;64.23
75190;HTU21D;69198;44.694;37.790;2024-03-08T06:24:00;9.08;64.59
75190;HTU21D;69198;44.694;37.790;2024-03-08T06:25:01;9.12;63.94